Durdle Door, United Kingdom
Current Conditions -  °F | °C
As of 12:20 AM on Monday 22 Dec 2014 (Local Time) from EGHH Reporting Station
Overcast Overcast  
Wind Chill: 54°   Ceiling: 700
Heat Index: 54°   Visibility: 6mi
Dew Point: 52°   Wind: 23mph
Humidity: 94%   Direction: 250°WSW
Pressure: 30.21"   Gusts: NA
Location:  50.62°N, 2.25°W
Report Text: EGHH 220020Z 25020KT 9999 OVC007 12/11 Q1023
Loading
Personal Weather Stations






























Interactive Weather Map New forecast layout! Learn more

10-Day Weather Forecast

Advertisements
Track Severe Weather on mobile